BAW2033 EGKK-OOMS
Flight info
| Callsign | BAW2033 |
|---|---|
| Flight time | N/A |
| Altitude | 37000 |
| Route | ODVIK Y311 DVR UL9 KONAN DCT KOK DCT REMBA DCT SPI DCT ULNOK DCT VIBOM DCT NOMBO DCT RIDAR DCT RADIZ DCT MODRO/N0471F390 DCT DARZA DCT PINDO DCT PAXIS L607 NABSI P557 OBRAN L321 REXUM M872 WEJ/N0482F410 M872 PMA Y214 RAPMA DCT KUVSO DCT KATIT DCT MIDGU M440 TULBU |
| Aircraft | B772/H-SDE2E3FGHIJ5LORVWXY/LB1D1 |
Departure
| Time | 2026-05-05 14:17 |
|---|---|
| Airport | London Gatwick Airport (EGKK) |
Arrival
| Time | N/A |
|---|---|
| Airport | Muscat International Airport (OOMS) |
| Time | Latitude | Longitude | Altitude | Speed | Heading |
|---|---|---|---|---|---|
| 2026-05-05 13:58 | 51.15584 | -0.16908 | 217 ft | 0 kts | 167° |
| 2026-05-05 14:05 | 51.15595 | -0.16911 | 218 ft | 4 kts | 168° |
| 2026-05-05 14:05 | 51.15621 | -0.16920 | 220 ft | 4 kts | 168° |
| 2026-05-05 14:05 | 51.15642 | -0.16926 | 220 ft | 4 kts | 188° |
| 2026-05-05 14:05 | 51.15661 | -0.16909 | 223 ft | 4 kts | 248° |
| 2026-05-05 14:06 | 51.15668 | -0.16870 | 214 ft | 4 kts | 258° |
| 2026-05-05 14:06 | 51.15672 | -0.16838 | 210 ft | 0 kts | 257° |
| 2026-05-05 14:08 | 51.15672 | -0.16840 | 208 ft | 2 kts | 257° |
| 2026-05-05 14:09 | 51.15659 | -0.16933 | 216 ft | 13 kts | 257° |
| 2026-05-05 14:09 | 51.15640 | -0.17061 | 209 ft | 13 kts | 257° |
| 2026-05-05 14:09 | 51.15619 | -0.17207 | 218 ft | 15 kts | 257° |
| 2026-05-05 14:09 | 51.15593 | -0.17373 | 215 ft | 16 kts | 254° |
| 2026-05-05 14:10 | 51.15537 | -0.17522 | 213 ft | 15 kts | 253° |
| 2026-05-05 14:10 | 51.15513 | -0.17695 | 217 ft | 17 kts | 257° |
| 2026-05-05 14:10 | 51.15485 | -0.17890 | 217 ft | 19 kts | 257° |
| 2026-05-05 14:10 | 51.15456 | -0.18103 | 216 ft | 21 kts | 257° |
| 2026-05-05 14:11 | 51.15425 | -0.18264 | 214 ft | 11 kts | 218° |
| 2026-05-05 14:11 | 51.15347 | -0.18262 | 214 ft | 12 kts | 167° |
| 2026-05-05 14:11 | 51.15257 | -0.18231 | 216 ft | 14 kts | 168° |
| 2026-05-05 14:11 | 51.15191 | -0.18286 | 217 ft | 12 kts | 251° |
| 2026-05-05 14:12 | 51.15172 | -0.18430 | 220 ft | 15 kts | 257° |
| 2026-05-05 14:12 | 51.15148 | -0.18599 | 210 ft | 17 kts | 257° |
| 2026-05-05 14:12 | 51.15121 | -0.18792 | 213 ft | 19 kts | 259° |
| 2026-05-05 14:12 | 51.15093 | -0.19006 | 214 ft | 21 kts | 258° |
| 2026-05-05 14:13 | 51.15061 | -0.19239 | 208 ft | 22 kts | 257° |
| 2026-05-05 14:13 | 51.15026 | -0.19490 | 218 ft | 24 kts | 258° |
| 2026-05-05 14:13 | 51.14990 | -0.19759 | 213 ft | 26 kts | 258° |
| 2026-05-05 14:13 | 51.14953 | -0.20021 | 212 ft | 19 kts | 258° |
| 2026-05-05 14:14 | 51.14923 | -0.20243 | 211 ft | 21 kts | 258° |
| 2026-05-05 14:14 | 51.14888 | -0.20486 | 213 ft | 23 kts | 257° |
| 2026-05-05 14:14 | 51.14852 | -0.20748 | 213 ft | 25 kts | 258° |
| 2026-05-05 14:14 | 51.14815 | -0.21023 | 211 ft | 22 kts | 258° |
| 2026-05-05 14:15 | 51.14779 | -0.21214 | 215 ft | 19 kts | 253° |
| 2026-05-05 14:15 | 51.14737 | -0.21393 | 217 ft | 14 kts | 208° |
| 2026-05-05 14:15 | 51.14646 | -0.21343 | 218 ft | 15 kts | 149° |
| 2026-05-05 14:15 | 51.14546 | -0.21280 | 216 ft | 17 kts | 141° |
| 2026-05-05 14:16 | 51.14521 | -0.21157 | 212 ft | 0 kts | 75° |
| 2026-05-05 14:16 | 51.14536 | -0.21064 | 215 ft | 33 kts | 76° |
| 2026-05-05 14:16 | 51.14641 | -0.20298 | 220 ft | 106 kts | 77° |
| 2026-05-05 14:17 | 51.14844 | -0.18813 | 235 ft | 164 kts | 78° |
| 2026-05-05 14:17 | 51.15082 | -0.16925 | 750 ft | 180 kts | 78° |
| 2026-05-05 14:17 | 51.15330 | -0.14973 | 1772 ft | 178 kts | 76° |
| 2026-05-05 14:17 | 51.15605 | -0.13067 | 2574 ft | 184 kts | 74° |
| 2026-05-05 14:18 | 51.15913 | -0.10971 | 2791 ft | 212 kts | 75° |
| 2026-05-05 14:18 | 51.16261 | -0.08542 | 3011 ft | 237 kts | 75° |
| 2026-05-05 14:18 | 51.16631 | -0.05903 | 3516 ft | 249 kts | 75° |
| 2026-05-05 14:18 | 51.16954 | -0.03164 | 4129 ft | 254 kts | 84° |
| 2026-05-05 14:19 | 51.16949 | -0.00309 | 4807 ft | 258 kts | 91° |
| 2026-05-05 14:19 | 51.16850 | 0.02521 | 5664 ft | 255 kts | 90° |
| 2026-05-05 14:19 | 51.16765 | 0.05408 | 6218 ft | 265 kts | 90° |
| 2026-05-05 14:19 | 51.16695 | 0.08369 | 6802 ft | 272 kts | 90° |
| 2026-05-05 14:20 | 51.16632 | 0.11398 | 7447 ft | 275 kts | 90° |
| 2026-05-05 14:20 | 51.16573 | 0.14343 | 8089 ft | 277 kts | 90° |
| 2026-05-05 14:20 | 51.16537 | 0.17428 | 8694 ft | 281 kts | 89° |
| 2026-05-05 14:20 | 51.16551 | 0.20560 | 9287 ft | 284 kts | 89° |
| 2026-05-05 14:21 | 51.16567 | 0.23722 | 9885 ft | 287 kts | 89° |
| 2026-05-05 14:21 | 51.16577 | 0.26932 | 10384 ft | 294 kts | 89° |
| 2026-05-05 14:21 | 51.16584 | 0.30288 | 10524 ft | 313 kts | 89° |
| 2026-05-05 14:21 | 51.16589 | 0.33858 | 10681 ft | 332 kts | 89° |
| 2026-05-05 14:22 | 51.16594 | 0.37635 | 10948 ft | 349 kts | 89° |
| 2026-05-05 14:22 | 51.16599 | 0.41553 | 11564 ft | 356 kts | 89° |
| 2026-05-05 14:22 | 51.16600 | 0.45526 | 12414 ft | 359 kts | 89° |
| 2026-05-05 14:22 | 51.16600 | 0.49502 | 13399 ft | 360 kts | 89° |
| 2026-05-05 14:23 | 51.16600 | 0.53513 | 14229 ft | 364 kts | 89° |
| 2026-05-05 14:23 | 51.16598 | 0.57567 | 14983 ft | 368 kts | 89° |
| 2026-05-05 14:23 | 51.16595 | 0.61662 | 15655 ft | 373 kts | 90° |
| 2026-05-05 14:23 | 51.16591 | 0.65841 | 16254 ft | 381 kts | 90° |